Aérodrome :
LOGIN :

S'inscrire | Disclaimer

   EN    FR    IT 

 










Légende :    VFR   VFR Marginal   IFR   IFR Intensif   IFR Très Intensif
Visi : 
Plafond : 
>= 8 km
>= 3000ft
5 à 8 km
1000 à 3000 ft
1500m à 5 km
500 à 1000 ft
800 à 1500m
200 à 500 ft
< 800m
< 200 ft
Symboles :   Orages  Brouillard  Fortes neiges  Fortes précipitations  Vent > 20 kt
SIGMETs :   Divers  Orages  Givrage  Turbulence  Onde Orograph.  Cendres Volcan.







- Altitude de l'aérodrome : 79 ft
- Code IATA : SPU


LDSP - Split

DERNIER METAR :
  • 291730Z 07003KT 360V120 9999 FEW040 14/07 Q1014 NOSIG

METARs EXPIRÉS :
  • 291700Z 11004KT 9999 FEW040 SCT050 15/07 Q1014 NOSIG
  • 291630Z 12004KT 9999 FEW040 SCT050 15/07 Q1014 NOSIG
  • 291600Z 12004KT 090V210 9999 FEW040 SCT050 17/07 Q1014 NOSIG
  • 291530Z 34001KT 9999 FEW040 SCT055 16/06 Q1014 NOSIG
  • 291500Z 11005KT 090V160 9999 FEW040 SCT060 15/07 Q1014 NOSIG

TAF TAF LDSP
Valide du 29 à 18h jusqu'au 30 à 18h UTC


291725Z 2918/3018 03005KT 9999 FEW050 TX21/3012Z TN06/3004Z
TEMPO 2918/2923 05008KT
BECMG 3010/3012 23010KT
Pas de NOTAMs connus pour ce terrain.
1 SIGMET publié pour la FIR Zagreb (LDZO) :
 
Turbulence forte
LDZO SIGMET 1 VALID 291556/291730 LDZA
LDZO ZAGREB FIR SEV TURB OBS WI N4234 E01833 - N4145 E01823 - N4252 E01616 - N4335 E01700 - N4234 E01833 FL340/390 STNR WKN=



MET'MAP, la Météo Aéronautique d'un coup d'oeil ! - Copyright ORBIFLY Décembre 2007 - Disclaimer

ORBIFLY MET'MAP TEAM :

Programmation & Développement : Alexandra Zaïnal
Conception & Développement : Baudouin d'Aumeries
Co-Programmation & Développement : Marc-Olivier Méhu
Soutien technique & logistique : Manuel Goepfert

Contact : metmap@orbifly.com




SOURCES & CREDITS :

   NOAA